createdAt,value
2019-03-06T00:02:13.776Z,2.10
2019-03-06T00:07:14.967Z,2.00
2019-03-06T00:12:16.077Z,1.73
2019-03-06T00:17:45.106Z,1.70
2019-03-06T00:22:46.496Z,2.10
2019-03-06T00:27:47.704Z,1.90
2019-03-06T00:32:48.824Z,1.70
2019-03-06T00:37:50.032Z,1.50
2019-03-06T00:42:54.331Z,1.90
2019-03-06T00:47:55.535Z,1.73
2019-03-06T00:52:56.758Z,1.30
2019-03-06T00:57:57.913Z,1.50
2019-03-06T01:02:59.056Z,2.17
2019-03-06T01:08:00.693Z,1.40
2019-03-06T01:13:01.881Z,1.60
2019-03-06T01:18:03.106Z,1.30
2019-03-06T01:23:04.200Z,1.47
2019-03-06T01:28:05.301Z,1.53
2019-03-06T01:33:08.331Z,1.40
2019-03-06T01:38:11.511Z,1.60
2019-03-06T01:43:23.564Z,1.87
2019-03-06T01:48:24.758Z,1.30
2019-03-06T01:53:25.992Z,1.30
2019-03-06T01:58:27.083Z,1.37
2019-03-06T02:03:28.240Z,1.53
2019-03-06T02:08:29.341Z,1.30
2019-03-06T02:13:30.407Z,1.53
2019-03-06T02:18:31.691Z,1.20
2019-03-06T02:23:32.900Z,1.70
2019-03-06T02:28:33.991Z,1.13
2019-03-06T02:33:35.093Z,1.40
2019-03-06T02:38:36.189Z,1.60
2019-03-06T02:43:37.288Z,1.33
2019-03-06T02:48:38.376Z,1.10
2019-03-06T02:53:39.497Z,1.40
2019-03-06T02:59:00.896Z,1.40
2019-03-06T03:04:10.123Z,1.50
2019-03-06T03:09:16.239Z,1.10
2019-03-06T03:14:17.363Z,1.50
2019-03-06T03:19:18.544Z,1.27
2019-03-06T03:24:19.633Z,1.13
2019-03-06T03:29:20.830Z,0.97
2019-03-06T03:34:21.991Z,1.53
2019-03-06T03:39:23.420Z,1.20
2019-03-06T03:44:24.523Z,1.40
2019-03-06T03:49:27.814Z,1.40
2019-03-06T03:54:28.629Z,1.20
2019-03-06T03:59:29.815Z,1.50
2019-03-06T04:04:30.925Z,1.57
2019-03-06T04:09:32.033Z,1.50
2019-03-06T04:14:33.328Z,1.53
2019-03-06T04:19:34.446Z,1.53
2019-03-06T04:24:35.540Z,1.70
2019-03-06T04:29:36.619Z,2.00
2019-03-06T04:34:37.719Z,1.40
2019-03-06T04:39:38.922Z,2.27
2019-03-06T04:44:40.015Z,2.77
2019-03-06T04:49:41.102Z,5.30
2019-03-06T04:54:42.210Z,2.00
2019-03-06T04:59:43.303Z,1.40
2019-03-06T05:04:44.495Z,1.63
2019-03-06T05:09:45.591Z,1.30
2019-03-06T05:14:46.690Z,1.43
2019-03-06T05:19:47.800Z,1.50
2019-03-06T05:24:48.909Z,1.33
2019-03-06T05:29:50.011Z,1.77
2019-03-06T05:34:51.398Z,1.57
2019-03-06T05:39:52.494Z,1.37
2019-03-06T05:44:53.887Z,1.37
2019-03-06T05:49:54.981Z,1.63
2019-03-06T05:54:56.097Z,1.40
2019-03-06T05:59:57.174Z,1.50
2019-03-06T06:04:58.272Z,0.90
2019-03-06T06:09:59.379Z,0.97
2019-03-06T06:15:00.460Z,1.10
2019-03-06T06:20:02.396Z,1.30
2019-03-06T06:25:03.900Z,0.80
2019-03-06T06:30:08.701Z,1.00
2019-03-06T06:35:11.187Z,0.90
2019-03-06T06:40:13.294Z,1.03
2019-03-06T06:45:15.205Z,0.93
2019-03-06T06:50:16.296Z,0.67
2019-03-06T06:55:39.179Z,0.77
2019-03-06T07:00:58.296Z,1.27
2019-03-06T07:06:01.307Z,0.97
2019-03-06T07:11:04.310Z,0.90
2019-03-06T07:16:13.460Z,0.80
2019-03-06T07:21:34.742Z,1.00
2019-03-06T07:26:49.773Z,0.80
2019-03-06T07:31:55.495Z,1.07
2019-03-06T07:37:07.536Z,1.00
2019-03-06T07:42:13.507Z,0.70
2019-03-06T07:47:28.516Z,0.87
2019-03-06T07:52:34.292Z,0.70
2019-03-06T07:57:55.960Z,1.13
2019-03-06T08:03:00.575Z,0.83
2019-03-06T08:08:01.680Z,1.10
2019-03-06T08:13:04.690Z,0.60
2019-03-06T08:18:08.103Z,0.97
2019-03-06T08:23:17.151Z,0.97
2019-03-06T08:28:18.448Z,0.70
2019-03-06T08:33:19.556Z,0.80
2019-03-06T08:38:20.651Z,0.70
2019-03-06T08:43:21.741Z,1.03
2019-03-06T08:48:24.945Z,0.67
2019-03-06T08:53:27.972Z,0.83
2019-03-06T08:58:31.371Z,0.70
2019-03-06T09:03:52.895Z,1.00
2019-03-06T09:08:55.905Z,0.77
2019-03-06T09:14:17.005Z,0.40
2019-03-06T09:19:29.231Z,0.60
2019-03-06T09:24:32.228Z,0.67
2019-03-06T09:29:44.291Z,0.60
2019-03-06T09:34:50.057Z,0.80
2019-03-06T09:40:08.205Z,0.70
2019-03-06T09:45:17.424Z,0.73
2019-03-06T09:50:39.050Z,0.70
2019-03-06T09:55:42.367Z,0.60
2019-03-06T10:01:00.825Z,0.80
2019-03-06T10:06:15.661Z,0.80
2019-03-06T10:11:35.277Z,0.87
2019-03-06T10:16:38.258Z,1.80
2019-03-06T10:21:39.416Z,0.80
2019-03-06T10:26:40.511Z,1.23
2019-03-06T10:31:41.624Z,0.50
2019-03-06T10:36:42.851Z,0.67
2019-03-06T10:41:44.206Z,0.73
2019-03-06T10:46:45.841Z,1.10
2019-03-06T10:51:48.067Z,0.67
2019-03-06T10:56:49.403Z,0.97
2019-03-06T11:01:50.840Z,0.73
2019-03-06T11:06:52.326Z,0.70
2019-03-06T11:11:53.931Z,1.00
2019-03-06T11:16:55.363Z,0.90
2019-03-06T11:21:57.008Z,0.70
2019-03-06T11:26:58.522Z,0.53
2019-03-06T11:31:59.818Z,0.60
2019-03-06T11:37:01.252Z,0.67
2019-03-06T11:42:03.335Z,0.80
2019-03-06T11:47:04.770Z,0.63
2019-03-06T11:52:06.568Z,0.73
2019-03-06T11:57:08.081Z,0.70
2019-03-06T12:02:09.779Z,0.70
2019-03-06T12:07:11.275Z,0.80
2019-03-06T12:12:12.392Z,0.80
2019-03-06T12:17:13.804Z,0.90
2019-03-06T12:22:15.029Z,0.73
2019-03-06T12:27:16.242Z,1.00
2019-03-06T12:32:17.461Z,0.93
2019-03-06T12:37:18.784Z,0.80
2019-03-06T12:42:19.887Z,1.07
2019-03-06T12:47:21.475Z,1.10
2019-03-06T12:52:22.673Z,1.20
2019-03-06T12:57:23.797Z,1.80
2019-03-06T13:02:24.917Z,1.10
2019-03-06T13:07:26.112Z,1.10
2019-03-06T13:12:29.187Z,1.00
2019-03-06T13:17:30.630Z,1.00
2019-03-06T13:22:31.960Z,0.93
2019-03-06T13:27:33.262Z,0.93
2019-03-06T13:32:36.580Z,1.00
2019-03-06T13:37:37.782Z,1.10
2019-03-06T13:42:38.971Z,1.40
2019-03-06T13:47:40.260Z,1.27
2019-03-06T13:52:41.499Z,1.30
2019-03-06T13:57:44.437Z,1.60
2019-03-06T14:02:47.545Z,1.40
2019-03-06T14:07:56.012Z,1.40
2019-03-06T14:12:52.334Z,1.63
2019-03-06T14:17:53.662Z,1.40
2019-03-06T14:22:54.984Z,1.77
2019-03-06T14:27:56.085Z,1.40
2019-03-06T14:32:57.490Z,1.30
2019-03-06T14:37:58.904Z,1.33
2019-03-06T14:43:02.512Z,1.27
2019-03-06T14:48:04.535Z,1.20
2019-03-06T14:53:05.993Z,1.60
2019-03-06T14:58:07.400Z,1.73
2019-03-06T15:03:08.704Z,1.40
2019-03-06T15:08:10.109Z,1.13
2019-03-06T15:13:11.213Z,1.53
2019-03-06T15:18:12.519Z,1.70
2019-03-06T15:23:13.831Z,1.77
2019-03-06T15:28:15.149Z,1.47
2019-03-06T15:33:17.258Z,1.57
2019-03-06T15:38:18.565Z,1.50
2019-03-06T15:43:20.683Z,1.73
2019-03-06T15:48:21.892Z,1.70
2019-03-06T15:53:25.185Z,1.60
2019-03-06T15:58:26.165Z,6.63
2019-03-06T16:03:27.492Z,3.20
2019-03-06T16:08:28.867Z,3.43
2019-03-06T16:13:30.175Z,2.43
2019-03-06T16:18:31.480Z,2.20
2019-03-06T16:23:32.624Z,2.40
2019-03-06T16:28:33.860Z,2.97
2019-03-06T16:33:34.938Z,2.43
2019-03-06T16:38:36.040Z,2.03
2019-03-06T16:43:37.285Z,3.10
2019-03-06T16:48:38.459Z,3.07
2019-03-06T16:53:39.688Z,2.63
2019-03-06T16:58:40.788Z,2.40
2019-03-06T17:03:42.097Z,2.50
2019-03-06T17:08:43.414Z,2.47
2019-03-06T17:13:44.612Z,2.70
2019-03-06T17:18:45.907Z,2.43
2019-03-06T17:23:47.136Z,4.10
2019-03-06T17:28:48.541Z,3.57
2019-03-06T17:33:49.968Z,4.90
2019-03-06T17:38:51.191Z,2.50
2019-03-06T17:43:52.495Z,3.10
2019-03-06T17:48:53.802Z,3.30
2019-03-06T17:53:55.100Z,3.70
2019-03-06T17:58:56.720Z,2.90
2019-03-06T18:03:59.836Z,3.60
2019-03-06T18:09:01.057Z,3.10
2019-03-06T18:14:04.490Z,2.50
2019-03-06T18:19:05.590Z,5.07
2019-03-06T18:24:06.863Z,5.27
2019-03-06T18:29:08.176Z,6.57
2019-03-06T18:34:09.592Z,5.63
2019-03-06T18:39:12.621Z,2.13
2019-03-06T18:44:13.939Z,2.50
2019-03-06T18:49:15.268Z,2.07
2019-03-06T18:54:16.427Z,2.70
2019-03-06T18:59:17.653Z,2.50
2019-03-06T19:04:18.875Z,2.60
2019-03-06T19:09:20.095Z,2.50
2019-03-06T19:14:21.481Z,3.17
2019-03-06T19:19:22.860Z,2.57
2019-03-06T19:24:24.120Z,3.00
2019-03-06T19:29:25.418Z,2.60
2019-03-06T19:34:26.743Z,2.83
2019-03-06T19:39:27.949Z,2.70
2019-03-06T19:44:29.382Z,2.90
2019-03-06T19:49:30.601Z,3.00
2019-03-06T19:54:32.107Z,2.90
2019-03-06T19:59:33.324Z,3.43
2019-03-06T20:04:34.557Z,4.07
2019-03-06T20:09:35.907Z,2.80
2019-03-06T20:14:37.013Z,2.60
2019-03-06T20:19:38.225Z,3.07
2019-03-06T20:24:39.605Z,2.30
2019-03-06T20:29:41.012Z,2.57
2019-03-06T20:34:42.415Z,2.20
2019-03-06T20:39:43.735Z,2.17
2019-03-06T20:44:45.002Z,2.00
2019-03-06T20:49:46.209Z,2.00
2019-03-06T20:54:47.457Z,1.70
2019-03-06T20:59:48.735Z,1.70
2019-03-06T21:04:50.645Z,1.53
2019-03-06T21:09:51.848Z,1.53
2019-03-06T21:14:53.157Z,1.40
2019-03-06T21:19:54.375Z,2.40
2019-03-06T21:24:55.512Z,1.40
2019-03-06T21:29:56.757Z,1.30
2019-03-06T21:34:58.252Z,1.50
2019-03-06T21:39:59.627Z,1.50
2019-03-06T21:45:00.951Z,1.67
2019-03-06T21:50:05.993Z,1.50
2019-03-06T21:55:10.231Z,1.60
2019-03-06T22:00:20.412Z,1.50
2019-03-06T22:05:21.637Z,1.63
2019-03-06T22:10:22.951Z,1.77
2019-03-06T22:15:24.139Z,1.40
2019-03-06T22:20:25.338Z,1.33
2019-03-06T22:25:26.573Z,1.40
2019-03-06T22:30:27.860Z,1.30
2019-03-06T22:35:28.964Z,1.20
2019-03-06T22:40:30.353Z,1.30
2019-03-06T22:45:31.460Z,1.30
2019-03-06T22:50:32.559Z,1.50
2019-03-06T22:55:33.871Z,1.70
2019-03-06T23:00:57.305Z,1.40
2019-03-06T23:05:58.603Z,1.20
2019-03-06T23:10:59.903Z,1.60
2019-03-06T23:16:01.103Z,0.90
2019-03-06T23:21:02.309Z,1.70
2019-03-06T23:26:03.529Z,1.37
2019-03-06T23:31:04.643Z,1.60
2019-03-06T23:36:05.900Z,1.60
2019-03-06T23:41:07.327Z,1.50
2019-03-06T23:46:08.431Z,1.10
2019-03-06T23:51:11.519Z,1.00
2019-03-06T23:56:12.640Z,1.27
